sensor_id;sensor_type;location;lat;lon;timestamp;P1;durP1;ratioP1;P2;durP2;ratioP2
76051;SDS011;64751;48.708;9.710;2023-02-03T00:00:04;0.20;;;0.20;;
76051;SDS011;64751;48.708;9.710;2023-02-03T00:02:38;0.20;;;0.20;;
76051;SDS011;64751;48.708;9.710;2023-02-03T00:05:06;0.15;;;0.15;;
76051;SDS011;64751;48.708;9.710;2023-02-03T00:07:35;0.20;;;0.20;;
76051;SDS011;64751;48.708;9.710;2023-02-03T00:10:03;0.38;;;0.30;;
76051;SDS011;64751;48.708;9.710;2023-02-03T00:12:32;0.40;;;0.40;;
76051;SDS011;64751;48.708;9.710;2023-02-03T00:15:00;0.38;;;0.30;;
76051;SDS011;64751;48.708;9.710;2023-02-03T00:17:28;0.85;;;0.40;;
76051;SDS011;64751;48.708;9.710;2023-02-03T00:19:56;0.10;;;0.10;;
76051;SDS011;64751;48.708;9.710;2023-02-03T00:22:24;0.57;;;0.35;;
76051;SDS011;64751;48.708;9.710;2023-02-03T00:24:51;0.65;;;0.30;;
76051;SDS011;64751;48.708;9.710;2023-02-03T00:27:19;0.32;;;0.25;;
76051;SDS011;64751;48.708;9.710;2023-02-03T00:29:46;0.40;;;0.40;;
76051;SDS011;64751;48.708;9.710;2023-02-03T00:32:14;0.40;;;0.30;;
76051;SDS011;64751;48.708;9.710;2023-02-03T00:34:44;0.45;;;0.40;;
76051;SDS011;64751;48.708;9.710;2023-02-03T00:37:13;0.52;;;0.43;;
76051;SDS011;64751;48.708;9.710;2023-02-03T00:39:40;0.38;;;0.38;;
76051;SDS011;64751;48.708;9.710;2023-02-03T00:42:08;0.68;;;0.40;;
76051;SDS011;64751;48.708;9.710;2023-02-03T00:44:36;0.45;;;0.20;;
76051;SDS011;64751;48.708;9.710;2023-02-03T00:47:03;0.30;;;0.30;;
76051;SDS011;64751;48.708;9.710;2023-02-03T00:49:31;0.25;;;0.25;;
76051;SDS011;64751;48.708;9.710;2023-02-03T00:51:58;1.42;;;0.65;;
76051;SDS011;64751;48.708;9.710;2023-02-03T00:54:27;0.30;;;0.30;;
76051;SDS011;64751;48.708;9.710;2023-02-03T00:56:55;0.50;;;0.50;;
76051;SDS011;64751;48.708;9.710;2023-02-03T00:59:23;0.40;;;0.40;;
76051;SDS011;64751;48.708;9.710;2023-02-03T01:01:50;0.28;;;0.22;;
76051;SDS011;64751;48.708;9.710;2023-02-03T01:04:18;0.73;;;0.43;;
76051;SDS011;64751;48.708;9.710;2023-02-03T01:06:45;0.32;;;0.30;;
76051;SDS011;64751;48.708;9.710;2023-02-03T01:09:13;0.60;;;0.40;;
76051;SDS011;64751;48.708;9.710;2023-02-03T01:11:42;0.57;;;0.40;;
76051;SDS011;64751;48.708;9.710;2023-02-03T01:14:09;0.52;;;0.30;;
76051;SDS011;64751;48.708;9.710;2023-02-03T01:16:37;0.70;;;0.30;;
76051;SDS011;64751;48.708;9.710;2023-02-03T01:19:04;0.25;;;0.22;;
76051;SDS011;64751;48.708;9.710;2023-02-03T01:21:32;0.47;;;0.35;;
76051;SDS011;64751;48.708;9.710;2023-02-03T01:24:01;0.20;;;0.20;;
76051;SDS011;64751;48.708;9.710;2023-02-03T01:26:30;0.25;;;0.25;;
76051;SDS011;64751;48.708;9.710;2023-02-03T01:28:59;0.40;;;0.25;;
76051;SDS011;64751;48.708;9.710;2023-02-03T01:31:28;0.10;;;0.10;;
76051;SDS011;64751;48.708;9.710;2023-02-03T01:33:56;0.20;;;0.20;;
76051;SDS011;64751;48.708;9.710;2023-02-03T01:36:25;0.30;;;0.30;;
76051;SDS011;64751;48.708;9.710;2023-02-03T01:38:54;0.30;;;0.30;;
76051;SDS011;64751;48.708;9.710;2023-02-03T01:41:22;0.28;;;0.28;;
76051;SDS011;64751;48.708;9.710;2023-02-03T01:43:52;0.70;;;0.50;;
76051;SDS011;64751;48.708;9.710;2023-02-03T01:46:27;0.35;;;0.30;;
76051;SDS011;64751;48.708;9.710;2023-02-03T01:48:59;0.60;;;0.40;;
76051;SDS011;64751;48.708;9.710;2023-02-03T01:51:32;0.20;;;0.20;;
76051;SDS011;64751;48.708;9.710;2023-02-03T01:54:01;0.47;;;0.40;;
76051;SDS011;64751;48.708;9.710;2023-02-03T01:56:32;0.08;;;0.08;;
76051;SDS011;64751;48.708;9.710;2023-02-03T01:59:04;0.30;;;0.30;;
76051;SDS011;64751;48.708;9.710;2023-02-03T02:01:34;0.45;;;0.40;;
76051;SDS011;64751;48.708;9.710;2023-02-03T02:04:02;0.25;;;0.25;;
76051;SDS011;64751;48.708;9.710;2023-02-03T02:06:32;0.20;;;0.20;;
76051;SDS011;64751;48.708;9.710;2023-02-03T02:08:59;0.15;;;0.15;;
76051;SDS011;64751;48.708;9.710;2023-02-03T02:11:27;0.30;;;0.30;;
76051;SDS011;64751;48.708;9.710;2023-02-03T02:13:56;0.47;;;0.38;;
76051;SDS011;64751;48.708;9.710;2023-02-03T02:16:28;0.32;;;0.30;;
76051;SDS011;64751;48.708;9.710;2023-02-03T02:19:20;0.30;;;0.30;;
76051;SDS011;64751;48.708;9.710;2023-02-03T02:22:10;0.30;;;0.30;;
76051;SDS011;64751;48.708;9.710;2023-02-03T02:24:54;0.30;;;0.30;;
76051;SDS011;64751;48.708;9.710;2023-02-03T02:27:42;0.20;;;0.20;;
76051;SDS011;64751;48.708;9.710;2023-02-03T02:30:51;0.30;;;0.30;;
76051;SDS011;64751;48.708;9.710;2023-02-03T02:33:35;0.30;;;0.22;;
76051;SDS011;64751;48.708;9.710;2023-02-03T02:36:11;0.57;;;0.30;;
76051;SDS011;64751;48.708;9.710;2023-02-03T02:38:48;0.20;;;0.20;;
76051;SDS011;64751;48.708;9.710;2023-02-03T02:41:25;0.63;;;0.22;;
76051;SDS011;64751;48.708;9.710;2023-02-03T02:43:58;0.35;;;0.30;;
76051;SDS011;64751;48.708;9.710;2023-02-03T02:46:30;0.40;;;0.40;;
76051;SDS011;64751;48.708;9.710;2023-02-03T02:49:03;0.30;;;0.20;;
76051;SDS011;64751;48.708;9.710;2023-02-03T02:51:36;0.63;;;0.40;;
76051;SDS011;64751;48.708;9.710;2023-02-03T02:54:07;0.10;;;0.10;;
76051;SDS011;64751;48.708;9.710;2023-02-03T02:56:42;0.47;;;0.32;;
76051;SDS011;64751;48.708;9.710;2023-02-03T02:59:12;0.43;;;0.35;;
76051;SDS011;64751;48.708;9.710;2023-02-03T03:01:40;0.25;;;0.25;;
76051;SDS011;64751;48.708;9.710;2023-02-03T03:04:11;0.25;;;0.25;;
76051;SDS011;64751;48.708;9.710;2023-02-03T03:06:43;0.43;;;0.25;;
76051;SDS011;64751;48.708;9.710;2023-02-03T03:09:14;0.30;;;0.30;;
76051;SDS011;64751;48.708;9.710;2023-02-03T03:11:46;1.38;;;0.57;;
76051;SDS011;64751;48.708;9.710;2023-02-03T03:14:18;0.60;;;0.40;;
76051;SDS011;64751;48.708;9.710;2023-02-03T03:16:50;0.35;;;0.35;;
76051;SDS011;64751;48.708;9.710;2023-02-03T03:19:24;0.28;;;0.20;;
76051;SDS011;64751;48.708;9.710;2023-02-03T03:21:56;0.30;;;0.20;;
76051;SDS011;64751;48.708;9.710;2023-02-03T03:24:27;0.45;;;0.32;;
76051;SDS011;64751;48.708;9.710;2023-02-03T03:26:58;0.30;;;0.30;;
76051;SDS011;64751;48.708;9.710;2023-02-03T03:29:34;0.47;;;0.38;;
76051;SDS011;64751;48.708;9.710;2023-02-03T03:32:06;0.30;;;0.15;;
76051;SDS011;64751;48.708;9.710;2023-02-03T03:34:36;0.20;;;0.20;;
76051;SDS011;64751;48.708;9.710;2023-02-03T03:37:05;0.40;;;0.40;;
76051;SDS011;64751;48.708;9.710;2023-02-03T03:39:40;0.47;;;0.30;;
76051;SDS011;64751;48.708;9.710;2023-02-03T03:42:13;0.38;;;0.32;;
76051;SDS011;64751;48.708;9.710;2023-02-03T03:44:48;0.30;;;0.30;;
76051;SDS011;64751;48.708;9.710;2023-02-03T03:47:22;0.20;;;0.20;;
76051;SDS011;64751;48.708;9.710;2023-02-03T03:49:54;0.20;;;0.20;;
76051;SDS011;64751;48.708;9.710;2023-02-03T03:52:26;0.13;;;0.13;;
76051;SDS011;64751;48.708;9.710;2023-02-03T03:54:57;0.15;;;0.15;;
76051;SDS011;64751;48.708;9.710;2023-02-03T03:57:28;0.28;;;0.28;;
76051;SDS011;64751;48.708;9.710;2023-02-03T04:00:00;0.32;;;0.17;;
76051;SDS011;64751;48.708;9.710;2023-02-03T04:02:38;0.10;;;0.10;;
76051;SDS011;64751;48.708;9.710;2023-02-03T04:05:08;0.20;;;0.20;;
76051;SDS011;64751;48.708;9.710;2023-02-03T04:07:38;0.45;;;0.40;;
76051;SDS011;64751;48.708;9.710;2023-02-03T04:10:11;0.10;;;0.10;;
76051;SDS011;64751;48.708;9.710;2023-02-03T04:12:43;0.30;;;0.30;;
76051;SDS011;64751;48.708;9.710;2023-02-03T04:15:11;0.10;;;0.10;;
76051;SDS011;64751;48.708;9.710;2023-02-03T04:17:39;0.55;;;0.22;;
76051;SDS011;64751;48.708;9.710;2023-02-03T04:20:06;0.30;;;0.30;;
76051;SDS011;64751;48.708;9.710;2023-02-03T04:22:37;0.47;;;0.47;;
76051;SDS011;64751;48.708;9.710;2023-02-03T04:25:05;0.30;;;0.30;;
76051;SDS011;64751;48.708;9.710;2023-02-03T04:27:33;0.28;;;0.20;;
76051;SDS011;64751;48.708;9.710;2023-02-03T04:30:00;0.40;;;0.35;;
76051;SDS011;64751;48.708;9.710;2023-02-03T04:32:29;0.20;;;0.20;;
76051;SDS011;64751;48.708;9.710;2023-02-03T04:34:57;0.60;;;0.30;;
76051;SDS011;64751;48.708;9.710;2023-02-03T04:37:26;0.70;;;0.40;;
76051;SDS011;64751;48.708;9.710;2023-02-03T04:39:53;0.30;;;0.30;;
76051;SDS011;64751;48.708;9.710;2023-02-03T04:42:21;0.38;;;0.30;;
76051;SDS011;64751;48.708;9.710;2023-02-03T04:44:49;0.20;;;0.20;;
76051;SDS011;64751;48.708;9.710;2023-02-03T04:47:17;0.30;;;0.30;;
76051;SDS011;64751;48.708;9.710;2023-02-03T04:49:45;0.20;;;0.20;;
76051;SDS011;64751;48.708;9.710;2023-02-03T04:52:12;0.10;;;0.10;;
76051;SDS011;64751;48.708;9.710;2023-02-03T04:54:41;0.40;;;0.30;;
76051;SDS011;64751;48.708;9.710;2023-02-03T04:57:09;0.45;;;0.40;;
76051;SDS011;64751;48.708;9.710;2023-02-03T04:59:36;0.30;;;0.20;;
76051;SDS011;64751;48.708;9.710;2023-02-03T05:02:04;0.32;;;0.30;;
76051;SDS011;64751;48.708;9.710;2023-02-03T05:04:33;0.45;;;0.38;;
76051;SDS011;64751;48.708;9.710;2023-02-03T05:07:01;0.43;;;0.35;;
76051;SDS011;64751;48.708;9.710;2023-02-03T05:09:28;0.40;;;0.20;;
76051;SDS011;64751;48.708;9.710;2023-02-03T05:11:57;0.28;;;0.10;;
76051;SDS011;64751;48.708;9.710;2023-02-03T05:14:25;0.20;;;0.20;;
76051;SDS011;64751;48.708;9.710;2023-02-03T05:16:53;0.30;;;0.20;;
76051;SDS011;64751;48.708;9.710;2023-02-03T05:19:20;1.05;;;0.30;;
76051;SDS011;64751;48.708;9.710;2023-02-03T05:21:48;0.35;;;0.28;;
76051;SDS011;64751;48.708;9.710;2023-02-03T05:24:16;0.45;;;0.40;;
76051;SDS011;64751;48.708;9.710;2023-02-03T05:26:44;0.28;;;0.20;;
76051;SDS011;64751;48.708;9.710;2023-02-03T05:29:13;0.40;;;0.30;;
76051;SDS011;64751;48.708;9.710;2023-02-03T05:31:40;0.20;;;0.20;;
76051;SDS011;64751;48.708;9.710;2023-02-03T05:34:08;0.20;;;0.20;;
76051;SDS011;64751;48.708;9.710;2023-02-03T05:36:36;0.20;;;0.20;;
76051;SDS011;64751;48.708;9.710;2023-02-03T05:39:03;0.13;;;0.10;;
76051;SDS011;64751;48.708;9.710;2023-02-03T05:41:31;0.30;;;0.30;;
76051;SDS011;64751;48.708;9.710;2023-02-03T05:44:17;0.77;;;0.30;;
76051;SDS011;64751;48.708;9.710;2023-02-03T05:46:45;0.47;;;0.30;;
76051;SDS011;64751;48.708;9.710;2023-02-03T05:49:12;0.57;;;0.40;;
76051;SDS011;64751;48.708;9.710;2023-02-03T05:51:40;0.28;;;0.28;;
76051;SDS011;64751;48.708;9.710;2023-02-03T05:54:08;1.55;;;0.40;;
76051;SDS011;64751;48.708;9.710;2023-02-03T05:56:36;0.55;;;0.30;;
76051;SDS011;64751;48.708;9.710;2023-02-03T05:59:04;0.65;;;0.40;;
76051;SDS011;64751;48.708;9.710;2023-02-03T06:01:34;0.43;;;0.40;;
76051;SDS011;64751;48.708;9.710;2023-02-03T06:04:02;0.47;;;0.47;;
76051;SDS011;64751;48.708;9.710;2023-02-03T06:06:30;0.60;;;0.50;;
76051;SDS011;64751;48.708;9.710;2023-02-03T06:08:59;0.22;;;0.22;;
76051;SDS011;64751;48.708;9.710;2023-02-03T06:11:27;0.43;;;0.28;;
76051;SDS011;64751;48.708;9.710;2023-02-03T06:13:54;1.08;;;0.80;;
76051;SDS011;64751;48.708;9.710;2023-02-03T06:16:23;1.15;;;0.93;;
76051;SDS011;64751;48.708;9.710;2023-02-03T06:18:53;2.00;;;1.67;;
76051;SDS011;64751;48.708;9.710;2023-02-03T06:21:23;1.77;;;1.17;;
76051;SDS011;64751;48.708;9.710;2023-02-03T06:23:50;0.80;;;0.80;;
76051;SDS011;64751;48.708;9.710;2023-02-03T06:26:18;1.10;;;0.90;;
76051;SDS011;64751;48.708;9.710;2023-02-03T06:28:46;1.33;;;0.85;;
76051;SDS011;64751;48.708;9.710;2023-02-03T06:31:13;1.58;;;1.20;;
76051;SDS011;64751;48.708;9.710;2023-02-03T06:33:41;1.10;;;1.00;;
76051;SDS011;64751;48.708;9.710;2023-02-03T06:36:10;1.30;;;1.00;;
76051;SDS011;64751;48.708;9.710;2023-02-03T06:38:37;0.77;;;0.77;;
76051;SDS011;64751;48.708;9.710;2023-02-03T06:41:05;0.80;;;0.70;;
76051;SDS011;64751;48.708;9.710;2023-02-03T06:43:32;0.55;;;0.55;;
76051;SDS011;64751;48.708;9.710;2023-02-03T06:46:01;0.47;;;0.47;;
76051;SDS011;64751;48.708;9.710;2023-02-03T06:48:28;0.30;;;0.30;;
76051;SDS011;64751;48.708;9.710;2023-02-03T06:50:56;1.08;;;0.47;;
76051;SDS011;64751;48.708;9.710;2023-02-03T06:53:25;0.47;;;0.47;;
76051;SDS011;64751;48.708;9.710;2023-02-03T06:55:52;0.30;;;0.30;;
76051;SDS011;64751;48.708;9.710;2023-02-03T06:58:20;0.22;;;0.22;;
76051;SDS011;64751;48.708;9.710;2023-02-03T07:00:48;0.45;;;0.25;;
76051;SDS011;64751;48.708;9.710;2023-02-03T07:03:16;0.40;;;0.40;;
76051;SDS011;64751;48.708;9.710;2023-02-03T07:05:44;0.50;;;0.40;;
76051;SDS011;64751;48.708;9.710;2023-02-03T07:08:11;0.38;;;0.20;;
76051;SDS011;64751;48.708;9.710;2023-02-03T07:10:40;0.40;;;0.30;;
76051;SDS011;64751;48.708;9.710;2023-02-03T07:13:08;0.20;;;0.20;;
76051;SDS011;64751;48.708;9.710;2023-02-03T07:15:35;0.47;;;0.43;;
76051;SDS011;64751;48.708;9.710;2023-02-03T07:18:03;0.30;;;0.30;;
76051;SDS011;64751;48.708;9.710;2023-02-03T07:20:30;0.20;;;0.15;;
76051;SDS011;64751;48.708;9.710;2023-02-03T07:22:58;0.50;;;0.45;;
76051;SDS011;64751;48.708;9.710;2023-02-03T07:25:26;0.55;;;0.40;;
76051;SDS011;64751;48.708;9.710;2023-02-03T07:27:55;0.30;;;0.20;;
76051;SDS011;64751;48.708;9.710;2023-02-03T07:30:22;0.80;;;0.60;;
76051;SDS011;64751;48.708;9.710;2023-02-03T07:32:50;0.60;;;0.57;;
76051;SDS011;64751;48.708;9.710;2023-02-03T07:35:19;1.08;;;0.70;;
76051;SDS011;64751;48.708;9.710;2023-02-03T07:37:46;1.58;;;0.85;;
76051;SDS011;64751;48.708;9.710;2023-02-03T07:40:14;2.03;;;1.45;;
76051;SDS011;64751;48.708;9.710;2023-02-03T07:42:43;1.70;;;1.10;;
76051;SDS011;64751;48.708;9.710;2023-02-03T07:45:14;0.70;;;0.70;;
76051;SDS011;64751;48.708;9.710;2023-02-03T07:47:42;0.80;;;0.50;;
76051;SDS011;64751;48.708;9.710;2023-02-03T07:50:11;0.82;;;0.68;;
76051;SDS011;64751;48.708;9.710;2023-02-03T07:52:39;0.35;;;0.35;;
76051;SDS011;64751;48.708;9.710;2023-02-03T07:55:07;0.30;;;0.30;;
76051;SDS011;64751;48.708;9.710;2023-02-03T07:57:35;0.90;;;0.32;;
76051;SDS011;64751;48.708;9.710;2023-02-03T08:00:03;0.43;;;0.43;;
76051;SDS011;64751;48.708;9.710;2023-02-03T08:02:39;0.65;;;0.40;;
76051;SDS011;64751;48.708;9.710;2023-02-03T08:05:07;0.75;;;0.40;;
76051;SDS011;64751;48.708;9.710;2023-02-03T08:07:36;0.65;;;0.30;;
76051;SDS011;64751;48.708;9.710;2023-02-03T08:10:04;0.55;;;0.52;;
76051;SDS011;64751;48.708;9.710;2023-02-03T08:12:32;0.93;;;0.73;;
76051;SDS011;64751;48.708;9.710;2023-02-03T08:15:00;0.73;;;0.57;;
76051;SDS011;64751;48.708;9.710;2023-02-03T08:17:28;1.00;;;0.90;;
76051;SDS011;64751;48.708;9.710;2023-02-03T08:19:56;1.00;;;0.82;;
76051;SDS011;64751;48.708;9.710;2023-02-03T08:22:24;0.38;;;0.32;;
76051;SDS011;64751;48.708;9.710;2023-02-03T08:24:52;0.57;;;0.50;;
76051;SDS011;64751;48.708;9.710;2023-02-03T08:27:20;0.30;;;0.30;;
76051;SDS011;64751;48.708;9.710;2023-02-03T08:29:48;0.52;;;0.40;;
76051;SDS011;64751;48.708;9.710;2023-02-03T08:32:16;0.40;;;0.40;;
76051;SDS011;64751;48.708;9.710;2023-02-03T08:34:46;0.40;;;0.38;;
76051;SDS011;64751;48.708;9.710;2023-02-03T08:37:17;0.30;;;0.30;;
76051;SDS011;64751;48.708;9.710;2023-02-03T08:39:47;0.40;;;0.30;;
76051;SDS011;64751;48.708;9.710;2023-02-03T08:42:14;0.55;;;0.43;;
76051;SDS011;64751;48.708;9.710;2023-02-03T08:44:42;0.60;;;0.50;;
76051;SDS011;64751;48.708;9.710;2023-02-03T08:47:10;0.55;;;0.55;;
76051;SDS011;64751;48.708;9.710;2023-02-03T08:49:38;0.22;;;0.22;;
76051;SDS011;64751;48.708;9.710;2023-02-03T08:52:06;0.30;;;0.22;;
76051;SDS011;64751;48.708;9.710;2023-02-03T08:54:37;1.27;;;0.40;;
76051;SDS011;64751;48.708;9.710;2023-02-03T08:57:06;0.38;;;0.30;;
76051;SDS011;64751;48.708;9.710;2023-02-03T08:59:34;0.80;;;0.40;;
76051;SDS011;64751;48.708;9.710;2023-02-03T09:02:05;0.85;;;0.50;;
76051;SDS011;64751;48.708;9.710;2023-02-03T09:04:35;0.38;;;0.38;;
76051;SDS011;64751;48.708;9.710;2023-02-03T09:07:03;0.50;;;0.50;;
76051;SDS011;64751;48.708;9.710;2023-02-03T09:09:31;0.20;;;0.20;;
76051;SDS011;64751;48.708;9.710;2023-02-03T09:12:00;0.80;;;0.60;;
76051;SDS011;64751;48.708;9.710;2023-02-03T09:14:30;0.30;;;0.30;;
76051;SDS011;64751;48.708;9.710;2023-02-03T09:16:58;0.35;;;0.35;;
76051;SDS011;64751;48.708;9.710;2023-02-03T09:19:27;0.43;;;0.40;;
76051;SDS011;64751;48.708;9.710;2023-02-03T09:21:54;0.25;;;0.22;;
76051;SDS011;64751;48.708;9.710;2023-02-03T09:24:23;0.93;;;0.43;;
76051;SDS011;64751;48.708;9.710;2023-02-03T09:26:51;0.38;;;0.30;;
76051;SDS011;64751;48.708;9.710;2023-02-03T09:29:23;0.30;;;0.30;;
76051;SDS011;64751;48.708;9.710;2023-02-03T09:32:07;0.65;;;0.30;;
76051;SDS011;64751;48.708;9.710;2023-02-03T09:34:35;0.20;;;0.20;;
76051;SDS011;64751;48.708;9.710;2023-02-03T09:37:04;0.30;;;0.30;;
76051;SDS011;64751;48.708;9.710;2023-02-03T09:39:32;0.28;;;0.28;;
76051;SDS011;64751;48.708;9.710;2023-02-03T09:42:03;0.52;;;0.40;;
76051;SDS011;64751;48.708;9.710;2023-02-03T09:44:45;0.20;;;0.20;;
76051;SDS011;64751;48.708;9.710;2023-02-03T09:47:17;0.40;;;0.40;;
76051;SDS011;64751;48.708;9.710;2023-02-03T09:49:49;0.50;;;0.40;;
76051;SDS011;64751;48.708;9.710;2023-02-03T09:52:18;0.35;;;0.35;;
76051;SDS011;64751;48.708;9.710;2023-02-03T09:54:50;0.50;;;0.50;;
76051;SDS011;64751;48.708;9.710;2023-02-03T09:57:21;0.70;;;0.57;;
76051;SDS011;64751;48.708;9.710;2023-02-03T09:59:53;0.50;;;0.50;;
76051;SDS011;64751;48.708;9.710;2023-02-03T10:02:30;0.30;;;0.30;;
76051;SDS011;64751;48.708;9.710;2023-02-03T10:05:12;0.30;;;0.25;;
76051;SDS011;64751;48.708;9.710;2023-02-03T10:07:49;0.70;;;0.52;;
76051;SDS011;64751;48.708;9.710;2023-02-03T10:13:03;0.22;;;0.20;;
76051;SDS011;64751;48.708;9.710;2023-02-03T10:15:42;0.30;;;0.30;;
76051;SDS011;64751;48.708;9.710;2023-02-03T10:18:22;0.30;;;0.30;;
76051;SDS011;64751;48.708;9.710;2023-02-03T10:20:55;0.35;;;0.30;;
76051;SDS011;64751;48.708;9.710;2023-02-03T10:23:28;0.50;;;0.40;;
76051;SDS011;64751;48.708;9.710;2023-02-03T10:25:58;0.60;;;0.40;;
76051;SDS011;64751;48.708;9.710;2023-02-03T10:28:29;0.13;;;0.13;;
76051;SDS011;64751;48.708;9.710;2023-02-03T10:30:59;0.22;;;0.22;;
76051;SDS011;64751;48.708;9.710;2023-02-03T10:33:33;0.40;;;0.30;;
76051;SDS011;64751;48.708;9.710;2023-02-03T10:36:03;0.55;;;0.30;;
76051;SDS011;64751;48.708;9.710;2023-02-03T10:38:43;0.30;;;0.30;;
76051;SDS011;64751;48.708;9.710;2023-02-03T10:41:18;0.98;;;0.60;;
76051;SDS011;64751;48.708;9.710;2023-02-03T10:43:49;0.40;;;0.40;;
76051;SDS011;64751;48.708;9.710;2023-02-03T10:46:19;0.35;;;0.25;;
76051;SDS011;64751;48.708;9.710;2023-02-03T10:48:52;0.40;;;0.38;;
76051;SDS011;64751;48.708;9.710;2023-02-03T10:51:21;0.45;;;0.32;;
76051;SDS011;64751;48.708;9.710;2023-02-03T10:53:49;0.32;;;0.28;;
76051;SDS011;64751;48.708;9.710;2023-02-03T10:56:19;0.20;;;0.20;;
76051;SDS011;64751;48.708;9.710;2023-02-03T10:58:50;0.30;;;0.20;;
76051;SDS011;64751;48.708;9.710;2023-02-03T11:01:21;0.35;;;0.35;;
76051;SDS011;64751;48.708;9.710;2023-02-03T11:03:54;0.45;;;0.45;;
76051;SDS011;64751;48.708;9.710;2023-02-03T11:06:24;0.15;;;0.15;;
76051;SDS011;64751;48.708;9.710;2023-02-03T11:08:53;0.35;;;0.20;;
76051;SDS011;64751;48.708;9.710;2023-02-03T11:11:23;0.82;;;0.30;;
76051;SDS011;64751;48.708;9.710;2023-02-03T11:13:51;0.20;;;0.20;;
76051;SDS011;64751;48.708;9.710;2023-02-03T11:16:22;0.55;;;0.25;;
76051;SDS011;64751;48.708;9.710;2023-02-03T11:18:51;0.30;;;0.30;;
76051;SDS011;64751;48.708;9.710;2023-02-03T11:21:21;0.10;;;0.10;;
76051;SDS011;64751;48.708;9.710;2023-02-03T11:23:52;0.50;;;0.30;;
76051;SDS011;64751;48.708;9.710;2023-02-03T11:26:23;0.10;;;0.10;;
76051;SDS011;64751;48.708;9.710;2023-02-03T11:28:55;0.13;;;0.10;;
76051;SDS011;64751;48.708;9.710;2023-02-03T11:31:27;0.32;;;0.20;;
76051;SDS011;64751;48.708;9.710;2023-02-03T11:33:58;0.55;;;0.28;;
76051;SDS011;64751;48.708;9.710;2023-02-03T11:36:29;0.20;;;0.20;;
76051;SDS011;64751;48.708;9.710;2023-02-03T11:39:14;0.40;;;0.40;;
76051;SDS011;64751;48.708;9.710;2023-02-03T11:41:45;0.17;;;0.17;;
76051;SDS011;64751;48.708;9.710;2023-02-03T11:44:15;0.38;;;0.30;;
76051;SDS011;64751;48.708;9.710;2023-02-03T11:49:20;0.13;;;0.13;;
76051;SDS011;64751;48.708;9.710;2023-02-03T11:52:06;0.20;;;0.20;;
76051;SDS011;64751;48.708;9.710;2023-02-03T11:54:51;0.22;;;0.22;;
76051;SDS011;64751;48.708;9.710;2023-02-03T11:57:27;0.20;;;0.20;;
76051;SDS011;64751;48.708;9.710;2023-02-03T12:00:06;0.10;;;0.10;;
76051;SDS011;64751;48.708;9.710;2023-02-03T12:03:00;0.15;;;0.15;;
76051;SDS011;64751;48.708;9.710;2023-02-03T12:05:56;0.47;;;0.32;;
76051;SDS011;64751;48.708;9.710;2023-02-03T12:08:37;0.20;;;0.10;;
76051;SDS011;64751;48.708;9.710;2023-02-03T12:11:17;0.52;;;0.38;;
76051;SDS011;64751;48.708;9.710;2023-02-03T12:13:58;0.40;;;0.20;;
76051;SDS011;64751;48.708;9.710;2023-02-03T12:16:58;0.28;;;0.28;;
76051;SDS011;64751;48.708;9.710;2023-02-03T12:19:43;0.20;;;0.20;;
76051;SDS011;64751;48.708;9.710;2023-02-03T12:22:21;0.73;;;0.30;;
76051;SDS011;64751;48.708;9.710;2023-02-03T12:24:56;0.15;;;0.13;;
76051;SDS011;64751;48.708;9.710;2023-02-03T12:27:34;0.28;;;0.20;;
76051;SDS011;64751;48.708;9.710;2023-02-03T12:30:15;0.30;;;0.30;;
76051;SDS011;64751;48.708;9.710;2023-02-03T12:32:49;0.50;;;0.30;;
76051;SDS011;64751;48.708;9.710;2023-02-03T12:35:23;0.28;;;0.20;;
76051;SDS011;64751;48.708;9.710;2023-02-03T12:37:57;0.20;;;0.20;;
76051;SDS011;64751;48.708;9.710;2023-02-03T12:40:34;0.20;;;0.20;;
76051;SDS011;64751;48.708;9.710;2023-02-03T12:43:16;0.00;;;0.00;;
76051;SDS011;64751;48.708;9.710;2023-02-03T12:45:51;0.30;;;0.30;;
76051;SDS011;64751;48.708;9.710;2023-02-03T12:48:23;0.10;;;0.10;;
76051;SDS011;64751;48.708;9.710;2023-02-03T12:51:01;0.20;;;0.10;;
76051;SDS011;64751;48.708;9.710;2023-02-03T12:53:35;0.20;;;0.20;;
76051;SDS011;64751;48.708;9.710;2023-02-03T12:56:07;0.57;;;0.25;;
76051;SDS011;64751;48.708;9.710;2023-02-03T12:58:38;0.22;;;0.10;;
76051;SDS011;64751;48.708;9.710;2023-02-03T13:01:11;0.50;;;0.08;;
76051;SDS011;64751;48.708;9.710;2023-02-03T13:03:45;0.40;;;0.30;;
76051;SDS011;64751;48.708;9.710;2023-02-03T13:06:19;0.32;;;0.20;;
76051;SDS011;64751;48.708;9.710;2023-02-03T13:08:53;0.10;;;0.10;;
76051;SDS011;64751;48.708;9.710;2023-02-03T13:11:27;0.22;;;0.22;;
76051;SDS011;64751;48.708;9.710;2023-02-03T13:14:04;0.10;;;0.10;;
76051;SDS011;64751;48.708;9.710;2023-02-03T13:16:41;0.47;;;0.40;;
76051;SDS011;64751;48.708;9.710;2023-02-03T13:19:12;0.38;;;0.30;;
76051;SDS011;64751;48.708;9.710;2023-02-03T13:21:45;0.30;;;0.30;;
76051;SDS011;64751;48.708;9.710;2023-02-03T13:24:14;0.13;;;0.13;;
76051;SDS011;64751;48.708;9.710;2023-02-03T13:29:47;0.28;;;0.20;;
76051;SDS011;64751;48.708;9.710;2023-02-03T13:32:32;0.38;;;0.35;;
76051;SDS011;64751;48.708;9.710;2023-02-03T13:35:14;0.10;;;0.10;;
76051;SDS011;64751;48.708;9.710;2023-02-03T13:37:56;0.63;;;0.55;;
76051;SDS011;64751;48.708;9.710;2023-02-03T13:40:37;0.30;;;0.28;;
76051;SDS011;64751;48.708;9.710;2023-02-03T13:43:16;0.20;;;0.20;;
76051;SDS011;64751;48.708;9.710;2023-02-03T13:45:49;0.50;;;0.40;;
76051;SDS011;64751;48.708;9.710;2023-02-03T13:48:19;0.50;;;0.30;;
76051;SDS011;64751;48.708;9.710;2023-02-03T13:50:50;0.10;;;0.10;;
76051;SDS011;64751;48.708;9.710;2023-02-03T13:53:33;0.15;;;0.15;;
76051;SDS011;64751;48.708;9.710;2023-02-03T13:56:03;0.30;;;0.20;;
76051;SDS011;64751;48.708;9.710;2023-02-03T13:58:33;0.15;;;0.15;;
76051;SDS011;64751;48.708;9.710;2023-02-03T14:03:54;0.20;;;0.20;;
76051;SDS011;64751;48.708;9.710;2023-02-03T14:12:34;0.52;;;0.40;;
76051;SDS011;64751;48.708;9.710;2023-02-03T14:15:16;0.50;;;0.40;;
76051;SDS011;64751;48.708;9.710;2023-02-03T14:17:57;0.30;;;0.20;;
76051;SDS011;64751;48.708;9.710;2023-02-03T14:20:38;0.20;;;0.20;;
76051;SDS011;64751;48.708;9.710;2023-02-03T14:23:10;0.22;;;0.22;;
76051;SDS011;64751;48.708;9.710;2023-02-03T14:25:45;0.35;;;0.25;;
76051;SDS011;64751;48.708;9.710;2023-02-03T14:28:17;0.20;;;0.10;;
76051;SDS011;64751;48.708;9.710;2023-02-03T14:36:40;0.52;;;0.30;;
76051;SDS011;64751;48.708;9.710;2023-02-03T14:42:29;0.28;;;0.00;;
76051;SDS011;64751;48.708;9.710;2023-02-03T14:45:12;0.10;;;0.10;;
76051;SDS011;64751;48.708;9.710;2023-02-03T14:47:53;1.27;;;0.20;;
76051;SDS011;64751;48.708;9.710;2023-02-03T14:50:33;0.22;;;0.22;;
76051;SDS011;64751;48.708;9.710;2023-02-03T14:53:18;0.35;;;0.30;;
76051;SDS011;64751;48.708;9.710;2023-02-03T14:55:58;0.30;;;0.28;;
76051;SDS011;64751;48.708;9.710;2023-02-03T14:58:42;0.32;;;0.30;;
76051;SDS011;64751;48.708;9.710;2023-02-03T15:01:23;0.40;;;0.40;;
76051;SDS011;64751;48.708;9.710;2023-02-03T15:06:48;0.25;;;0.25;;
76051;SDS011;64751;48.708;9.710;2023-02-03T15:09:19;0.25;;;0.25;;
76051;SDS011;64751;48.708;9.710;2023-02-03T15:11:52;0.35;;;0.22;;
76051;SDS011;64751;48.708;9.710;2023-02-03T15:14:22;0.40;;;0.40;;
76051;SDS011;64751;48.708;9.710;2023-02-03T15:16:53;0.30;;;0.30;;
76051;SDS011;64751;48.708;9.710;2023-02-03T15:19:23;0.20;;;0.20;;
76051;SDS011;64751;48.708;9.710;2023-02-03T15:21:52;0.30;;;0.20;;
76051;SDS011;64751;48.708;9.710;2023-02-03T15:24:21;0.15;;;0.15;;
76051;SDS011;64751;48.708;9.710;2023-02-03T15:26:51;0.65;;;0.35;;
76051;SDS011;64751;48.708;9.710;2023-02-03T15:29:27;0.25;;;0.20;;
76051;SDS011;64751;48.708;9.710;2023-02-03T15:31:58;0.30;;;0.17;;
76051;SDS011;64751;48.708;9.710;2023-02-03T15:34:35;0.20;;;0.20;;
76051;SDS011;64751;48.708;9.710;2023-02-03T15:37:06;0.08;;;0.08;;
76051;SDS011;64751;48.708;9.710;2023-02-03T15:39:40;0.28;;;0.10;;
76051;SDS011;64751;48.708;9.710;2023-02-03T15:42:15;0.10;;;0.10;;